createdAt,value
2017-12-31T00:01:07.128Z,9.90
2017-12-31T00:03:42.063Z,9.90
2017-12-31T00:06:17.642Z,9.90
2017-12-31T00:08:51.948Z,9.90
2017-12-31T00:11:26.361Z,9.90
2017-12-31T00:14:00.760Z,9.90
2017-12-31T00:16:35.820Z,9.90
2017-12-31T00:19:10.920Z,9.90
2017-12-31T00:21:45.867Z,9.90
2017-12-31T00:24:20.088Z,9.90
2017-12-31T00:26:53.772Z,9.90
2017-12-31T00:29:28.232Z,9.80
2017-12-31T00:32:02.826Z,9.80
2017-12-31T00:34:37.789Z,9.70
2017-12-31T00:37:12.477Z,9.70
2017-12-31T00:39:46.547Z,9.70
2017-12-31T00:42:20.988Z,9.70
2017-12-31T00:44:54.977Z,9.60
2017-12-31T00:47:28.734Z,9.60
2017-12-31T00:50:03.268Z,9.60
2017-12-31T00:52:37.943Z,9.60
2017-12-31T00:55:12.167Z,9.60
2017-12-31T00:57:45.999Z,9.50
2017-12-31T01:00:20.599Z,9.60
2017-12-31T01:02:55.153Z,9.50
2017-12-31T01:05:29.348Z,9.50
2017-12-31T01:08:03.075Z,9.50
2017-12-31T01:10:37.710Z,9.50
2017-12-31T01:13:12.492Z,9.50
2017-12-31T01:15:46.876Z,9.50
2017-12-31T01:18:21.488Z,9.50
2017-12-31T01:20:55.204Z,9.40
2017-12-31T01:23:28.893Z,9.40
2017-12-31T01:26:02.618Z,9.40
2017-12-31T01:28:37.281Z,9.40
2017-12-31T01:31:12.012Z,9.30
2017-12-31T01:33:46.501Z,9.30
2017-12-31T01:36:20.408Z,9.20
2017-12-31T01:38:54.245Z,9.20
2017-12-31T01:41:28.874Z,9.20
2017-12-31T01:44:03.566Z,9.20
2017-12-31T01:46:37.621Z,9.20
2017-12-31T01:49:12.163Z,9.20
2017-12-31T01:51:46.960Z,9.20
2017-12-31T01:54:20.992Z,9.20
2017-12-31T01:56:54.700Z,9.20
2017-12-31T01:59:28.565Z,9.20
2017-12-31T02:02:03.129Z,9.20
2017-12-31T02:04:37.972Z,9.30
2017-12-31T02:07:12.684Z,9.20
2017-12-31T02:09:47.431Z,9.30
2017-12-31T02:12:22.260Z,9.30
2017-12-31T02:14:56.242Z,9.20
2017-12-31T02:17:30.092Z,9.30
2017-12-31T02:20:03.769Z,9.30
2017-12-31T02:22:37.535Z,9.30
2017-12-31T02:25:11.982Z,9.30
2017-12-31T02:27:46.024Z,9.30
2017-12-31T02:30:19.729Z,9.20
2017-12-31T02:32:53.342Z,9.20
2017-12-31T02:35:27.071Z,9.30
2017-12-31T02:38:00.783Z,9.30
2017-12-31T02:40:34.465Z,9.30
2017-12-31T02:43:08.915Z,9.30
2017-12-31T02:45:42.865Z,9.30
2017-12-31T02:48:18.285Z,9.40
2017-12-31T02:50:53.330Z,9.40
2017-12-31T02:53:28.248Z,9.40
2017-12-31T02:56:02.781Z,9.40
2017-12-31T02:58:36.964Z,9.50
2017-12-31T03:01:11.439Z,9.60
2017-12-31T03:03:45.817Z,9.60
2017-12-31T03:06:20.972Z,9.60
2017-12-31T03:08:55.088Z,9.60
2017-12-31T03:11:29.113Z,9.70
2017-12-31T03:14:03.678Z,9.60
2017-12-31T03:16:38.272Z,9.70
2017-12-31T03:19:12.244Z,9.70
2017-12-31T03:21:46.978Z,9.70
2017-12-31T03:24:20.955Z,9.70
2017-12-31T03:26:55.516Z,9.70
2017-12-31T03:29:29.381Z,9.70
2017-12-31T03:32:03.974Z,9.70
2017-12-31T03:34:37.991Z,9.70
2017-12-31T03:37:11.640Z,9.70
2017-12-31T03:39:46.057Z,9.70
2017-12-31T03:42:20.716Z,9.70
2017-12-31T03:44:54.577Z,9.70
2017-12-31T03:47:28.238Z,9.70
2017-12-31T03:50:03.627Z,9.80
2017-12-31T03:52:38.473Z,9.80
2017-12-31T03:55:12.567Z,9.70
2017-12-31T03:57:46.139Z,9.70
2017-12-31T04:00:19.773Z,9.70
2017-12-31T04:02:53.611Z,9.70
2017-12-31T04:05:27.387Z,9.70
2017-12-31T04:08:01.908Z,9.80
2017-12-31T04:10:36.768Z,9.80
2017-12-31T04:13:10.872Z,9.80
2017-12-31T04:15:44.505Z,9.80
2017-12-31T04:18:18.363Z,9.80
2017-12-31T04:20:52.043Z,9.80
2017-12-31T04:23:26.601Z,9.80
2017-12-31T04:26:01.280Z,9.70
2017-12-31T04:28:36.028Z,9.70
2017-12-31T04:31:10.876Z,9.70
2017-12-31T04:33:45.566Z,9.70
2017-12-31T04:36:19.469Z,9.70
2017-12-31T04:38:53.366Z,9.70
2017-12-31T04:41:26.986Z,9.60
2017-12-31T04:44:01.666Z,9.60
2017-12-31T04:46:36.184Z,9.60
2017-12-31T04:49:10.519Z,9.60
2017-12-31T04:51:44.460Z,9.60
2017-12-31T04:54:19.004Z,9.60
2017-12-31T04:56:52.974Z,9.60
2017-12-31T04:59:27.434Z,9.70
2017-12-31T05:02:02.159Z,9.60
2017-12-31T05:04:36.825Z,9.70
2017-12-31T05:07:10.806Z,9.70
2017-12-31T05:09:44.491Z,9.70
2017-12-31T05:12:18.205Z,9.70
2017-12-31T05:14:52.293Z,9.60
2017-12-31T05:20:02.100Z,9.70
2017-12-31T05:22:37.218Z,9.70
2017-12-31T05:25:11.218Z,8.40
2017-12-31T05:27:44.933Z,9.70
2017-12-31T05:30:18.736Z,9.70
2017-12-31T05:32:53.232Z,9.70
2017-12-31T05:35:27.991Z,9.70
2017-12-31T05:38:02.689Z,9.60
2017-12-31T05:40:37.593Z,9.60
2017-12-31T05:43:11.659Z,9.60
2017-12-31T05:45:45.614Z,9.60
2017-12-31T05:48:19.478Z,9.50
2017-12-31T05:50:53.169Z,9.50
2017-12-31T05:53:27.862Z,9.50
2017-12-31T05:56:01.657Z,9.50
2017-12-31T05:58:35.398Z,9.40
2017-12-31T06:01:09.826Z,9.50
2017-12-31T06:03:44.062Z,9.50
2017-12-31T06:06:17.870Z,9.50
2017-12-31T06:08:51.503Z,9.50
2017-12-31T06:11:26.080Z,9.50
2017-12-31T06:13:59.798Z,9.50
2017-12-31T06:16:33.602Z,9.50
2017-12-31T06:19:07.272Z,9.50
2017-12-31T06:21:41.059Z,9.50
2017-12-31T06:24:14.822Z,9.50
2017-12-31T06:26:48.713Z,9.50
2017-12-31T06:29:22.452Z,9.50
2017-12-31T06:31:56.141Z,9.50
2017-12-31T06:34:30.628Z,9.50
2017-12-31T06:37:04.841Z,9.40
2017-12-31T06:39:38.477Z,9.40
2017-12-31T06:42:13.102Z,9.40
2017-12-31T06:44:47.077Z,9.40
2017-12-31T06:47:21.636Z,9.40
2017-12-31T06:49:56.344Z,9.40
2017-12-31T06:52:31.085Z,9.40
2017-12-31T06:55:05.150Z,9.40
2017-12-31T06:57:39.628Z,9.40
2017-12-31T07:00:14.192Z,9.40
2017-12-31T07:02:48.396Z,9.30
2017-12-31T07:05:22.153Z,9.30
2017-12-31T07:07:55.848Z,9.30
2017-12-31T07:10:29.670Z,9.30
2017-12-31T07:13:03.346Z,9.30
2017-12-31T07:15:37.028Z,9.20
2017-12-31T07:18:10.658Z,9.20
2017-12-31T07:20:44.576Z,9.20
2017-12-31T07:23:18.979Z,9.10
2017-12-31T07:25:53.995Z,9.20
2017-12-31T07:28:28.143Z,9.10
2017-12-31T07:31:02.625Z,9.20
2017-12-31T07:33:36.560Z,9.10
2017-12-31T07:36:11.170Z,9.10
2017-12-31T07:38:45.258Z,9.20
2017-12-31T07:41:18.999Z,9.10
2017-12-31T07:43:53.527Z,9.20
2017-12-31T07:46:28.363Z,9.20
2017-12-31T07:49:02.340Z,9.20
2017-12-31T07:51:35.964Z,9.20
2017-12-31T07:54:10.123Z,9.30
2017-12-31T07:56:44.868Z,9.30
2017-12-31T07:59:19.175Z,9.30
2017-12-31T08:01:53.640Z,9.40
2017-12-31T08:04:28.455Z,9.40
2017-12-31T08:07:02.416Z,9.50
2017-12-31T08:09:36.949Z,9.50
2017-12-31T08:12:11.712Z,9.60
2017-12-31T08:14:46.507Z,9.70
2017-12-31T08:17:21.243Z,9.80
2017-12-31T08:19:55.035Z,9.90
2017-12-31T08:22:28.917Z,9.90
2017-12-31T08:25:02.620Z,9.90
2017-12-31T08:27:36.349Z,9.90
2017-12-31T08:30:10.092Z,10.00
2017-12-31T08:32:44.655Z,10.00
2017-12-31T08:35:18.657Z,10.10
2017-12-31T08:37:52.362Z,10.30
2017-12-31T08:40:26.901Z,10.40
2017-12-31T08:43:00.553Z,10.50
2017-12-31T08:45:35.085Z,10.70
2017-12-31T08:48:10.047Z,10.70
2017-12-31T08:50:43.988Z,10.90
2017-12-31T08:53:17.796Z,11.00
2017-12-31T08:55:52.396Z,11.00
2017-12-31T08:58:27.063Z,11.10
2017-12-31T09:01:01.631Z,11.20
2017-12-31T09:03:35.732Z,11.20
2017-12-31T09:06:10.211Z,11.30
2017-12-31T09:08:44.099Z,11.40
2017-12-31T09:11:18.540Z,11.40
2017-12-31T09:13:53.336Z,11.50
2017-12-31T09:16:27.176Z,11.50
2017-12-31T09:19:02.557Z,11.60
2017-12-31T09:21:37.198Z,11.60
2017-12-31T09:24:12.047Z,11.60
2017-12-31T09:26:45.911Z,11.60
2017-12-31T09:29:21.053Z,11.70
2017-12-31T09:31:55.234Z,11.70
2017-12-31T09:34:29.897Z,11.80
2017-12-31T09:37:04.828Z,11.80
2017-12-31T09:39:38.694Z,11.80
2017-12-31T09:42:13.174Z,11.90
2017-12-31T09:44:47.787Z,12.00
2017-12-31T09:47:22.603Z,12.00
2017-12-31T09:49:57.205Z,12.00
2017-12-31T09:52:31.184Z,12.10
2017-12-31T09:55:05.559Z,12.00
2017-12-31T09:57:39.580Z,12.00
2017-12-31T10:00:15.002Z,12.00
2017-12-31T10:02:49.012Z,12.00
2017-12-31T10:05:22.889Z,12.00
2017-12-31T10:07:57.440Z,12.00
2017-12-31T10:10:31.966Z,12.10
2017-12-31T10:13:05.845Z,12.10
2017-12-31T10:15:39.591Z,12.10
2017-12-31T10:18:14.903Z,12.10
2017-12-31T10:20:49.944Z,12.10
2017-12-31T10:23:24.477Z,12.20
2017-12-31T10:25:58.220Z,12.30
2017-12-31T10:28:32.279Z,12.30
2017-12-31T10:31:07.024Z,12.30
2017-12-31T10:33:42.083Z,12.40
2017-12-31T10:36:16.870Z,12.40
2017-12-31T10:38:52.151Z,12.50
2017-12-31T10:44:01.703Z,12.50
2017-12-31T10:46:36.550Z,12.50
2017-12-31T10:49:11.128Z,12.50
2017-12-31T10:51:44.839Z,12.50
2017-12-31T10:54:20.093Z,12.60
2017-12-31T10:56:54.705Z,12.70
2017-12-31T10:59:29.407Z,12.70
2017-12-31T11:02:03.305Z,12.70
2017-12-31T11:04:37.749Z,12.80
2017-12-31T11:07:12.317Z,12.80
2017-12-31T11:09:46.876Z,12.70
2017-12-31T11:12:21.028Z,12.70
2017-12-31T11:14:54.733Z,12.70
2017-12-31T11:17:28.317Z,12.70
2017-12-31T11:20:02.842Z,12.70
2017-12-31T11:22:36.447Z,12.70
2017-12-31T11:25:10.231Z,12.70
2017-12-31T11:27:44.855Z,12.70
2017-12-31T11:30:19.707Z,12.70
2017-12-31T11:32:53.785Z,12.70
2017-12-31T11:35:27.624Z,12.70
2017-12-31T11:38:01.396Z,12.80
2017-12-31T11:40:35.139Z,12.80
2017-12-31T11:43:09.077Z,12.80
2017-12-31T11:45:43.434Z,12.70
2017-12-31T11:48:17.045Z,12.70
2017-12-31T11:50:51.699Z,12.70
2017-12-31T11:53:26.291Z,12.80
2017-12-31T11:56:01.255Z,12.70
2017-12-31T11:58:36.256Z,12.70
2017-12-31T12:01:11.121Z,12.70
2017-12-31T12:03:45.027Z,12.70
2017-12-31T12:06:18.773Z,12.70
2017-12-31T12:08:53.435Z,12.60
2017-12-31T12:11:27.410Z,12.60
2017-12-31T12:14:01.860Z,12.60
2017-12-31T12:16:35.708Z,12.60
2017-12-31T12:19:09.411Z,12.60
2017-12-31T12:21:43.153Z,12.60
2017-12-31T12:24:16.753Z,12.60
2017-12-31T12:26:50.453Z,12.60
2017-12-31T12:29:24.976Z,12.60
2017-12-31T12:31:59.130Z,12.70
2017-12-31T12:34:32.690Z,12.60
2017-12-31T12:37:06.453Z,12.70
2017-12-31T12:39:40.948Z,12.70
2017-12-31T12:42:14.937Z,12.70
2017-12-31T12:44:50.423Z,12.70
2017-12-31T12:47:24.229Z,14.10
2017-12-31T12:49:58.138Z,12.70
2017-12-31T12:52:32.582Z,12.80
2017-12-31T12:55:07.245Z,12.80
2017-12-31T12:57:41.196Z,12.90
2017-12-31T13:00:15.676Z,12.90
2017-12-31T13:02:49.407Z,12.90
2017-12-31T13:05:24.732Z,13.20
2017-12-31T13:07:58.522Z,13.20
2017-12-31T13:10:32.247Z,13.40
2017-12-31T13:13:06.056Z,13.70
2017-12-31T13:15:39.980Z,13.70
2017-12-31T13:18:13.673Z,13.70
2017-12-31T13:20:48.308Z,13.70
2017-12-31T13:23:22.890Z,13.70
2017-12-31T13:25:57.268Z,13.80
2017-12-31T13:28:33.160Z,13.70
2017-12-31T13:31:08.141Z,13.70
2017-12-31T13:33:43.282Z,13.60
2017-12-31T13:36:17.700Z,13.60
2017-12-31T13:38:52.490Z,13.60
2017-12-31T13:41:26.497Z,13.50
2017-12-31T13:44:00.145Z,13.60
2017-12-31T13:46:33.840Z,13.60
2017-12-31T13:49:07.545Z,13.60
2017-12-31T13:51:41.356Z,13.70
2017-12-31T13:54:15.828Z,13.70
2017-12-31T13:56:50.499Z,13.70
2017-12-31T13:59:24.301Z,13.70
2017-12-31T14:01:58.124Z,13.60
2017-12-31T14:04:31.848Z,13.60
2017-12-31T14:07:06.195Z,13.60
2017-12-31T14:09:40.147Z,13.60
2017-12-31T14:12:14.034Z,13.50
2017-12-31T14:14:48.773Z,13.60
2017-12-31T14:17:22.796Z,13.50
2017-12-31T14:19:56.749Z,13.50
2017-12-31T14:22:30.380Z,13.50
2017-12-31T14:25:04.349Z,13.50
2017-12-31T14:27:38.807Z,13.50
2017-12-31T14:30:12.543Z,13.50
2017-12-31T14:32:46.992Z,13.50
2017-12-31T14:35:20.997Z,13.40
2017-12-31T14:37:55.475Z,13.40
2017-12-31T14:40:29.209Z,13.50
2017-12-31T14:43:02.870Z,13.50
2017-12-31T14:45:36.675Z,13.50
2017-12-31T14:48:11.104Z,13.50
2017-12-31T14:50:45.725Z,13.50
2017-12-31T14:53:20.476Z,13.50
2017-12-31T14:55:55.212Z,13.50
2017-12-31T14:58:29.217Z,13.50
2017-12-31T15:01:02.991Z,13.50
2017-12-31T15:03:37.611Z,13.50
2017-12-31T15:06:11.525Z,13.50
2017-12-31T15:08:46.641Z,13.50
2017-12-31T15:11:20.984Z,13.40
2017-12-31T15:13:54.782Z,13.40
2017-12-31T15:16:29.321Z,13.40
2017-12-31T15:19:04.003Z,13.30
2017-12-31T15:21:37.948Z,13.30
2017-12-31T15:24:11.724Z,13.30
2017-12-31T15:26:46.195Z,13.20
2017-12-31T15:29:20.264Z,13.30
2017-12-31T15:31:54.477Z,13.30
2017-12-31T15:34:29.182Z,13.30
2017-12-31T15:37:03.606Z,13.30
2017-12-31T15:39:39.011Z,13.30
2017-12-31T15:42:12.983Z,13.20
2017-12-31T15:44:47.535Z,13.20
2017-12-31T15:49:57.118Z,13.10
2017-12-31T15:52:30.794Z,13.10
2017-12-31T15:55:04.705Z,13.10
2017-12-31T15:57:40.061Z,13.10
2017-12-31T16:00:14.976Z,13.10
2017-12-31T16:02:48.852Z,13.00
2017-12-31T16:05:23.421Z,13.00
2017-12-31T16:07:58.201Z,13.10
2017-12-31T16:10:32.929Z,13.00
2017-12-31T16:13:06.747Z,13.00
2017-12-31T16:15:40.553Z,13.00
2017-12-31T16:18:15.987Z,13.00
2017-12-31T16:20:50.010Z,13.00
2017-12-31T16:23:23.708Z,13.10
2017-12-31T16:25:57.576Z,13.10
2017-12-31T16:28:32.168Z,13.10
2017-12-31T16:31:05.918Z,13.10
2017-12-31T16:33:39.580Z,13.20
2017-12-31T16:36:14.165Z,13.20
2017-12-31T16:38:48.840Z,13.20
2017-12-31T16:41:22.993Z,13.20
2017-12-31T16:43:57.645Z,13.20
2017-12-31T16:46:32.429Z,13.20
2017-12-31T16:49:07.101Z,13.20
2017-12-31T16:51:41.085Z,13.20
2017-12-31T16:54:16.491Z,13.10
2017-12-31T16:56:51.254Z,13.00
2017-12-31T16:59:25.028Z,13.00
2017-12-31T17:01:58.755Z,12.90
2017-12-31T17:04:32.577Z,12.90
2017-12-31T17:07:07.343Z,12.80
2017-12-31T17:09:41.863Z,12.70
2017-12-31T17:12:15.751Z,12.70
2017-12-31T17:14:50.441Z,12.70
2017-12-31T17:17:25.792Z,12.70
2017-12-31T17:20:00.529Z,12.60
2017-12-31T17:22:35.318Z,12.60
2017-12-31T17:25:10.087Z,12.60
2017-12-31T17:27:44.770Z,12.60
2017-12-31T17:30:19.560Z,12.60
2017-12-31T17:32:54.486Z,12.60
2017-12-31T17:35:28.421Z,12.60
2017-12-31T17:38:02.149Z,12.60
2017-12-31T17:40:35.869Z,12.60
2017-12-31T17:43:09.926Z,12.60
2017-12-31T17:45:44.302Z,12.60
2017-12-31T17:48:18.186Z,12.60
2017-12-31T17:50:53.546Z,12.60
2017-12-31T17:53:27.402Z,12.60
2017-12-31T17:56:01.972Z,12.60
2017-12-31T17:58:36.075Z,12.60
2017-12-31T18:01:10.680Z,12.60
2017-12-31T18:03:44.314Z,12.60
2017-12-31T18:06:18.042Z,12.60
2017-12-31T18:08:52.689Z,12.60
2017-12-31T18:11:26.497Z,12.60
2017-12-31T18:14:01.750Z,12.60
2017-12-31T18:16:36.350Z,12.60
2017-12-31T18:19:11.079Z,12.70
2017-12-31T18:21:45.177Z,12.70
2017-12-31T18:24:20.538Z,12.70
2017-12-31T18:26:54.443Z,12.80
2017-12-31T18:29:29.125Z,12.80
2017-12-31T18:32:03.077Z,12.80
2017-12-31T18:34:36.984Z,12.80
2017-12-31T18:37:11.472Z,12.90
2017-12-31T18:39:45.420Z,12.80
2017-12-31T18:42:19.204Z,12.90
2017-12-31T18:44:53.783Z,12.90
2017-12-31T18:47:28.046Z,12.90
2017-12-31T18:50:03.432Z,12.90
2017-12-31T18:52:37.081Z,12.90
2017-12-31T18:55:10.835Z,12.90
2017-12-31T18:57:45.997Z,12.90
2017-12-31T19:00:21.269Z,12.90
2017-12-31T19:02:55.146Z,12.90
2017-12-31T19:05:29.109Z,12.90
2017-12-31T19:08:03.848Z,12.90
2017-12-31T19:10:37.783Z,12.90
2017-12-31T19:13:13.169Z,12.90
2017-12-31T19:15:47.230Z,12.90
2017-12-31T19:18:21.671Z,13.00
2017-12-31T19:20:57.230Z,13.00
2017-12-31T19:23:32.205Z,13.00
2017-12-31T19:26:05.988Z,13.00
2017-12-31T19:28:39.812Z,13.10
2017-12-31T19:31:13.737Z,13.10
2017-12-31T19:33:48.189Z,13.10
2017-12-31T19:36:23.053Z,13.10
2017-12-31T19:38:57.707Z,13.20
2017-12-31T19:41:32.401Z,13.10
2017-12-31T19:44:07.104Z,13.10
2017-12-31T19:46:41.760Z,13.20
2017-12-31T19:49:15.617Z,13.20
2017-12-31T19:51:50.195Z,13.20
2017-12-31T19:54:25.003Z,13.10
2017-12-31T19:56:59.031Z,13.00
2017-12-31T19:59:33.400Z,12.90
2017-12-31T20:02:07.351Z,12.80
2017-12-31T20:04:41.179Z,12.70
2017-12-31T20:07:14.972Z,12.70
2017-12-31T20:09:48.711Z,12.60
2017-12-31T20:12:23.265Z,12.50
2017-12-31T20:14:57.152Z,12.50
2017-12-31T20:17:30.954Z,12.50
2017-12-31T20:20:04.616Z,12.40
2017-12-31T20:22:38.423Z,12.50
2017-12-31T20:25:12.328Z,12.40
2017-12-31T20:27:46.831Z,12.40
2017-12-31T20:30:21.243Z,12.30
2017-12-31T20:32:55.547Z,12.30
2017-12-31T20:35:29.811Z,12.40
2017-12-31T20:38:03.522Z,12.40
2017-12-31T20:40:37.283Z,12.40
2017-12-31T20:43:12.549Z,12.40
2017-12-31T20:45:47.498Z,12.40
2017-12-31T20:48:21.406Z,12.30
2017-12-31T20:50:55.231Z,12.30
2017-12-31T20:53:29.956Z,12.20
2017-12-31T20:56:03.828Z,12.20
2017-12-31T20:58:38.521Z,12.10
2017-12-31T21:01:13.053Z,12.10
2017-12-31T21:03:48.911Z,12.10
2017-12-31T21:06:22.593Z,12.10
2017-12-31T21:08:56.361Z,12.10
2017-12-31T21:11:30.076Z,12.10
2017-12-31T21:14:04.580Z,12.10
2017-12-31T21:16:39.100Z,12.10
2017-12-31T21:19:13.095Z,12.10
2017-12-31T21:21:46.938Z,12.00
2017-12-31T21:24:21.284Z,12.00
2017-12-31T21:26:55.152Z,12.00
2017-12-31T21:29:29.736Z,12.00
2017-12-31T21:32:05.306Z,11.90
2017-12-31T21:34:39.140Z,11.90
2017-12-31T21:37:12.830Z,11.90
2017-12-31T21:39:47.339Z,11.80
2017-12-31T21:42:21.371Z,11.80
2017-12-31T21:44:55.857Z,11.80
2017-12-31T21:47:30.341Z,11.80
2017-12-31T21:50:05.101Z,11.80
2017-12-31T21:52:39.015Z,11.70
2017-12-31T21:55:12.784Z,11.80
2017-12-31T21:57:47.416Z,11.70
2017-12-31T22:00:21.373Z,11.70
2017-12-31T22:02:55.025Z,11.70
2017-12-31T22:05:28.783Z,11.70
2017-12-31T22:08:02.579Z,11.70
2017-12-31T22:10:36.465Z,11.70
2017-12-31T22:13:10.319Z,11.70
2017-12-31T22:15:44.945Z,11.70
2017-12-31T22:18:18.892Z,11.70
2017-12-31T22:20:52.683Z,11.70
2017-12-31T22:23:27.266Z,11.50
2017-12-31T22:26:01.172Z,11.50
2017-12-31T22:28:36.582Z,11.30
2017-12-31T22:31:11.346Z,11.30
2017-12-31T22:33:46.106Z,11.20
2017-12-31T22:36:20.269Z,11.20
2017-12-31T22:38:54.009Z,11.10
2017-12-31T22:41:28.610Z,11.00
2017-12-31T22:44:02.830Z,11.00
2017-12-31T22:46:36.690Z,11.00
2017-12-31T22:49:11.944Z,11.00
2017-12-31T22:51:45.812Z,10.90
2017-12-31T22:54:19.554Z,10.90
2017-12-31T22:56:54.008Z,10.90
2017-12-31T22:59:28.598Z,10.90
2017-12-31T23:02:02.654Z,10.90
2017-12-31T23:04:37.236Z,10.90
2017-12-31T23:07:11.689Z,10.90
2017-12-31T23:09:45.803Z,11.00
2017-12-31T23:12:20.273Z,10.90
2017-12-31T23:14:54.260Z,11.00
2017-12-31T23:17:28.700Z,10.90
2017-12-31T23:20:02.837Z,10.90
2017-12-31T23:22:37.745Z,11.00
2017-12-31T23:25:12.427Z,11.00
2017-12-31T23:27:47.578Z,11.00
2017-12-31T23:30:21.684Z,11.00
2017-12-31T23:32:57.596Z,11.00
2017-12-31T23:35:32.135Z,11.00
2017-12-31T23:38:06.506Z,11.00
2017-12-31T23:40:40.213Z,11.00
2017-12-31T23:43:14.718Z,10.90
2017-12-31T23:45:49.504Z,11.00
2017-12-31T23:48:23.721Z,10.90
2017-12-31T23:50:58.357Z,10.90
2017-12-31T23:53:32.593Z,11.00
2017-12-31T23:56:07.147Z,11.00
2017-12-31T23:58:41.300Z,11.00
